sensor_id;sensor_type;location;lat;lon;timestamp;P1;durP1;ratioP1;P2;durP2;ratioP2
36815;SDS011;71982;52.294;6.760;2023-08-06T00:00:37;8.23;;;6.65;;
36815;SDS011;71982;52.294;6.760;2023-08-06T00:03:04;12.00;;;6.90;;
36815;SDS011;71982;52.294;6.760;2023-08-06T00:05:31;11.55;;;7.43;;
36815;SDS011;71982;52.294;6.760;2023-08-06T00:07:58;11.18;;;7.47;;
36815;SDS011;71982;52.294;6.760;2023-08-06T00:10:26;9.43;;;7.30;;
36815;SDS011;71982;52.294;6.760;2023-08-06T00:12:53;11.05;;;7.45;;
36815;SDS011;71982;52.294;6.760;2023-08-06T00:15:20;11.95;;;7.35;;
36815;SDS011;71982;52.294;6.760;2023-08-06T00:17:46;10.75;;;7.30;;
36815;SDS011;71982;52.294;6.760;2023-08-06T00:20:13;11.68;;;7.03;;
36815;SDS011;71982;52.294;6.760;2023-08-06T00:22:40;13.20;;;7.32;;
36815;SDS011;71982;52.294;6.760;2023-08-06T00:25:07;13.10;;;6.75;;
36815;SDS011;71982;52.294;6.760;2023-08-06T00:27:36;14.43;;;7.38;;
36815;SDS011;71982;52.294;6.760;2023-08-06T00:30:03;12.73;;;7.50;;
36815;SDS011;71982;52.294;6.760;2023-08-06T00:32:31;9.07;;;7.35;;
36815;SDS011;71982;52.294;6.760;2023-08-06T00:34:57;9.02;;;6.68;;
36815;SDS011;71982;52.294;6.760;2023-08-06T00:37:24;9.80;;;6.60;;
36815;SDS011;71982;52.294;6.760;2023-08-06T00:39:51;9.75;;;6.93;;
36815;SDS011;71982;52.294;6.760;2023-08-06T00:42:18;9.90;;;6.53;;
36815;SDS011;71982;52.294;6.760;2023-08-06T00:44:47;10.70;;;6.65;;
36815;SDS011;71982;52.294;6.760;2023-08-06T00:47:14;13.38;;;6.22;;
36815;SDS011;71982;52.294;6.760;2023-08-06T00:49:41;9.23;;;6.68;;
36815;SDS011;71982;52.294;6.760;2023-08-06T00:52:08;12.35;;;7.50;;
36815;SDS011;71982;52.294;6.760;2023-08-06T00:54:35;10.30;;;6.68;;
36815;SDS011;71982;52.294;6.760;2023-08-06T00:57:03;10.35;;;7.65;;
36815;SDS011;71982;52.294;6.760;2023-08-06T00:59:30;9.85;;;6.60;;
36815;SDS011;71982;52.294;6.760;2023-08-06T01:01:59;8.90;;;6.65;;
36815;SDS011;71982;52.294;6.760;2023-08-06T01:04:26;10.00;;;6.57;;
36815;SDS011;71982;52.294;6.760;2023-08-06T01:06:56;12.23;;;7.30;;
36815;SDS011;71982;52.294;6.760;2023-08-06T01:09:31;13.80;;;7.30;;
36815;SDS011;71982;52.294;6.760;2023-08-06T01:12:06;12.93;;;7.18;;
36815;SDS011;71982;52.294;6.760;2023-08-06T01:14:42;10.68;;;7.20;;
36815;SDS011;71982;52.294;6.760;2023-08-06T01:17:18;10.20;;;6.75;;
36815;SDS011;71982;52.294;6.760;2023-08-06T01:19:46;11.13;;;7.25;;
36815;SDS011;71982;52.294;6.760;2023-08-06T01:22:14;12.30;;;7.78;;
36815;SDS011;71982;52.294;6.760;2023-08-06T01:24:41;11.55;;;7.93;;
36815;SDS011;71982;52.294;6.760;2023-08-06T01:27:14;11.13;;;7.20;;
36815;SDS011;71982;52.294;6.760;2023-08-06T01:29:49;12.27;;;7.78;;
36815;SDS011;71982;52.294;6.760;2023-08-06T01:32:23;9.45;;;7.65;;
36815;SDS011;71982;52.294;6.760;2023-08-06T01:34:52;11.23;;;7.85;;
36815;SDS011;71982;52.294;6.760;2023-08-06T01:37:22;13.93;;;8.02;;
36815;SDS011;71982;52.294;6.760;2023-08-06T01:39:49;11.13;;;8.20;;
36815;SDS011;71982;52.294;6.760;2023-08-06T01:42:16;12.48;;;8.52;;
36815;SDS011;71982;52.294;6.760;2023-08-06T01:44:43;12.80;;;7.38;;
36815;SDS011;71982;52.294;6.760;2023-08-06T01:47:09;14.18;;;8.35;;
36815;SDS011;71982;52.294;6.760;2023-08-06T01:49:36;11.20;;;7.93;;
36815;SDS011;71982;52.294;6.760;2023-08-06T01:52:03;11.95;;;8.35;;
36815;SDS011;71982;52.294;6.760;2023-08-06T01:54:32;10.15;;;7.88;;
36815;SDS011;71982;52.294;6.760;2023-08-06T01:56:59;13.07;;;8.50;;
36815;SDS011;71982;52.294;6.760;2023-08-06T01:59:25;12.65;;;7.80;;
36815;SDS011;71982;52.294;6.760;2023-08-06T02:01:52;12.50;;;8.85;;
36815;SDS011;71982;52.294;6.760;2023-08-06T02:04:19;13.07;;;8.52;;
36815;SDS011;71982;52.294;6.760;2023-08-06T02:06:46;11.30;;;7.90;;
36815;SDS011;71982;52.294;6.760;2023-08-06T02:09:13;10.75;;;8.25;;
36815;SDS011;71982;52.294;6.760;2023-08-06T02:11:41;10.40;;;8.07;;
36815;SDS011;71982;52.294;6.760;2023-08-06T02:14:08;13.73;;;8.50;;
36815;SDS011;71982;52.294;6.760;2023-08-06T02:16:34;14.07;;;8.40;;
36815;SDS011;71982;52.294;6.760;2023-08-06T02:19:01;11.48;;;8.32;;
36815;SDS011;71982;52.294;6.760;2023-08-06T02:21:28;11.82;;;8.18;;
36815;SDS011;71982;52.294;6.760;2023-08-06T02:23:55;12.05;;;7.88;;
36815;SDS011;71982;52.294;6.760;2023-08-06T02:26:22;11.18;;;8.13;;
36815;SDS011;71982;52.294;6.760;2023-08-06T02:28:50;14.88;;;8.27;;
36815;SDS011;71982;52.294;6.760;2023-08-06T02:31:16;11.48;;;7.93;;
36815;SDS011;71982;52.294;6.760;2023-08-06T02:33:43;13.23;;;8.68;;
36815;SDS011;71982;52.294;6.760;2023-08-06T02:36:10;13.75;;;7.97;;
36815;SDS011;71982;52.294;6.760;2023-08-06T02:38:37;12.48;;;8.13;;
36815;SDS011;71982;52.294;6.760;2023-08-06T02:41:04;13.15;;;8.57;;
36815;SDS011;71982;52.294;6.760;2023-08-06T02:43:31;14.38;;;9.13;;
36815;SDS011;71982;52.294;6.760;2023-08-06T02:45:59;16.52;;;8.85;;
36815;SDS011;71982;52.294;6.760;2023-08-06T02:48:26;13.10;;;8.15;;
36815;SDS011;71982;52.294;6.760;2023-08-06T02:50:56;12.80;;;7.97;;
36815;SDS011;71982;52.294;6.760;2023-08-06T02:53:24;11.77;;;8.38;;
36815;SDS011;71982;52.294;6.760;2023-08-06T02:55:51;14.15;;;9.10;;
36815;SDS011;71982;52.294;6.760;2023-08-06T02:58:18;19.25;;;9.15;;
36815;SDS011;71982;52.294;6.760;2023-08-06T03:00:47;15.77;;;9.05;;
36815;SDS011;71982;52.294;6.760;2023-08-06T03:03:27;12.55;;;9.02;;
36815;SDS011;71982;52.294;6.760;2023-08-06T03:05:55;13.13;;;9.98;;
36815;SDS011;71982;52.294;6.760;2023-08-06T03:08:21;15.85;;;9.23;;
36815;SDS011;71982;52.294;6.760;2023-08-06T03:10:48;13.73;;;9.73;;
36815;SDS011;71982;52.294;6.760;2023-08-06T03:13:15;12.73;;;9.27;;
36815;SDS011;71982;52.294;6.760;2023-08-06T03:15:42;14.23;;;10.45;;
36815;SDS011;71982;52.294;6.760;2023-08-06T03:18:11;15.27;;;10.30;;
36815;SDS011;71982;52.294;6.760;2023-08-06T03:20:37;16.70;;;10.38;;
36815;SDS011;71982;52.294;6.760;2023-08-06T03:23:04;16.45;;;10.13;;
36815;SDS011;71982;52.294;6.760;2023-08-06T03:25:31;20.88;;;10.57;;
36815;SDS011;71982;52.294;6.760;2023-08-06T03:28:01;16.25;;;9.15;;
36815;SDS011;71982;52.294;6.760;2023-08-06T03:30:27;17.73;;;10.98;;
36815;SDS011;71982;52.294;6.760;2023-08-06T03:32:54;17.13;;;11.02;;
36815;SDS011;71982;52.294;6.760;2023-08-06T03:35:22;13.82;;;9.77;;
36815;SDS011;71982;52.294;6.760;2023-08-06T03:37:49;13.38;;;9.98;;
36815;SDS011;71982;52.294;6.760;2023-08-06T03:40:16;14.77;;;10.13;;
36815;SDS011;71982;52.294;6.760;2023-08-06T03:42:43;15.98;;;10.95;;
36815;SDS011;71982;52.294;6.760;2023-08-06T03:45:09;14.27;;;10.65;;
36815;SDS011;71982;52.294;6.760;2023-08-06T03:47:36;13.00;;;10.50;;
36815;SDS011;71982;52.294;6.760;2023-08-06T03:50:03;15.50;;;11.32;;
36815;SDS011;71982;52.294;6.760;2023-08-06T03:52:32;14.30;;;11.00;;
36815;SDS011;71982;52.294;6.760;2023-08-06T03:54:59;16.42;;;10.95;;
36815;SDS011;71982;52.294;6.760;2023-08-06T03:57:25;15.55;;;11.32;;
36815;SDS011;71982;52.294;6.760;2023-08-06T03:59:52;14.68;;;10.77;;
36815;SDS011;71982;52.294;6.760;2023-08-06T04:02:19;15.27;;;11.15;;
36815;SDS011;71982;52.294;6.760;2023-08-06T04:04:46;15.80;;;11.13;;
36815;SDS011;71982;52.294;6.760;2023-08-06T04:07:12;14.80;;;11.63;;
36815;SDS011;71982;52.294;6.760;2023-08-06T04:09:52;16.50;;;11.13;;
36815;SDS011;71982;52.294;6.760;2023-08-06T04:12:20;16.20;;;12.20;;
36815;SDS011;71982;52.294;6.760;2023-08-06T04:14:47;15.50;;;12.15;;
36815;SDS011;71982;52.294;6.760;2023-08-06T04:17:13;30.25;;;14.38;;
36815;SDS011;71982;52.294;6.760;2023-08-06T04:19:40;21.10;;;12.23;;
36815;SDS011;71982;52.294;6.760;2023-08-06T04:22:07;16.02;;;12.52;;
36815;SDS011;71982;52.294;6.760;2023-08-06T04:24:34;15.90;;;12.95;;
36815;SDS011;71982;52.294;6.760;2023-08-06T04:27:02;15.82;;;12.38;;
36815;SDS011;71982;52.294;6.760;2023-08-06T04:29:29;19.13;;;12.85;;
36815;SDS011;71982;52.294;6.760;2023-08-06T04:31:56;18.95;;;13.18;;
36815;SDS011;71982;52.294;6.760;2023-08-06T04:34:23;14.13;;;11.63;;
36815;SDS011;71982;52.294;6.760;2023-08-06T04:36:50;15.18;;;13.02;;
36815;SDS011;71982;52.294;6.760;2023-08-06T04:39:16;18.42;;;12.18;;
36815;SDS011;71982;52.294;6.760;2023-08-06T04:41:43;17.27;;;12.70;;
36815;SDS011;71982;52.294;6.760;2023-08-06T04:44:11;21.08;;;13.90;;
36815;SDS011;71982;52.294;6.760;2023-08-06T04:46:38;17.83;;;13.40;;
36815;SDS011;71982;52.294;6.760;2023-08-06T04:49:05;16.77;;;12.73;;
36815;SDS011;71982;52.294;6.760;2023-08-06T04:51:32;19.17;;;13.68;;
36815;SDS011;71982;52.294;6.760;2023-08-06T04:53:58;21.70;;;13.45;;
36815;SDS011;71982;52.294;6.760;2023-08-06T04:56:25;17.88;;;12.90;;
36815;SDS011;71982;52.294;6.760;2023-08-06T04:58:52;14.95;;;11.82;;
36815;SDS011;71982;52.294;6.760;2023-08-06T05:01:20;16.02;;;12.75;;
36815;SDS011;71982;52.294;6.760;2023-08-06T05:03:47;17.55;;;13.30;;
36815;SDS011;71982;52.294;6.760;2023-08-06T05:06:14;18.70;;;13.27;;
36815;SDS011;71982;52.294;6.760;2023-08-06T05:08:41;17.35;;;11.85;;
36815;SDS011;71982;52.294;6.760;2023-08-06T05:11:07;16.70;;;12.18;;
36815;SDS011;71982;52.294;6.760;2023-08-06T05:13:35;23.60;;;12.05;;
36815;SDS011;71982;52.294;6.760;2023-08-06T05:16:02;17.75;;;12.40;;
36815;SDS011;71982;52.294;6.760;2023-08-06T05:18:30;18.92;;;13.07;;
36815;SDS011;71982;52.294;6.760;2023-08-06T05:20:59;13.93;;;11.55;;
36815;SDS011;71982;52.294;6.760;2023-08-06T05:23:26;15.60;;;11.60;;
36815;SDS011;71982;52.294;6.760;2023-08-06T05:25:53;17.40;;;12.00;;
36815;SDS011;71982;52.294;6.760;2023-08-06T05:28:19;14.35;;;11.13;;
36815;SDS011;71982;52.294;6.760;2023-08-06T05:30:46;14.70;;;12.15;;
36815;SDS011;71982;52.294;6.760;2023-08-06T05:33:13;18.10;;;11.55;;
36815;SDS011;71982;52.294;6.760;2023-08-06T05:35:41;16.48;;;11.38;;
36815;SDS011;71982;52.294;6.760;2023-08-06T05:38:08;15.13;;;11.05;;
36815;SDS011;71982;52.294;6.760;2023-08-06T05:40:35;18.60;;;12.15;;
36815;SDS011;71982;52.294;6.760;2023-08-06T05:43:02;14.38;;;10.55;;
36815;SDS011;71982;52.294;6.760;2023-08-06T05:45:29;17.27;;;10.75;;
36815;SDS011;71982;52.294;6.760;2023-08-06T05:47:55;14.70;;;11.35;;
36815;SDS011;71982;52.294;6.760;2023-08-06T05:50:23;14.07;;;11.05;;
36815;SDS011;71982;52.294;6.760;2023-08-06T05:52:52;18.13;;;11.93;;
36815;SDS011;71982;52.294;6.760;2023-08-06T05:55:19;15.10;;;11.52;;
36815;SDS011;71982;52.294;6.760;2023-08-06T05:57:46;14.18;;;10.23;;
36815;SDS011;71982;52.294;6.760;2023-08-06T06:00:13;13.35;;;9.80;;
36815;SDS011;71982;52.294;6.760;2023-08-06T06:02:40;15.02;;;10.15;;
36815;SDS011;71982;52.294;6.760;2023-08-06T06:05:07;11.73;;;9.40;;
36815;SDS011;71982;52.294;6.760;2023-08-06T06:07:34;14.90;;;10.50;;
36815;SDS011;71982;52.294;6.760;2023-08-06T06:10:03;15.05;;;9.98;;
36815;SDS011;71982;52.294;6.760;2023-08-06T06:12:30;12.65;;;9.73;;
36815;SDS011;71982;52.294;6.760;2023-08-06T06:14:57;11.35;;;8.23;;
36815;SDS011;71982;52.294;6.760;2023-08-06T06:17:25;13.60;;;9.65;;
36815;SDS011;71982;52.294;6.760;2023-08-06T06:19:52;13.05;;;9.25;;
36815;SDS011;71982;52.294;6.760;2023-08-06T06:22:19;10.68;;;8.85;;
36815;SDS011;71982;52.294;6.760;2023-08-06T06:24:46;12.07;;;8.65;;
36815;SDS011;71982;52.294;6.760;2023-08-06T06:27:14;13.02;;;8.70;;
36815;SDS011;71982;52.294;6.760;2023-08-06T06:29:41;16.30;;;8.98;;
36815;SDS011;71982;52.294;6.760;2023-08-06T06:32:07;11.73;;;8.00;;
36815;SDS011;71982;52.294;6.760;2023-08-06T06:34:34;11.20;;;8.02;;
36815;SDS011;71982;52.294;6.760;2023-08-06T06:37:01;11.10;;;8.20;;
36815;SDS011;71982;52.294;6.760;2023-08-06T06:39:28;12.85;;;8.27;;
36815;SDS011;71982;52.294;6.760;2023-08-06T06:41:55;11.48;;;8.82;;
36815;SDS011;71982;52.294;6.760;2023-08-06T06:44:23;12.45;;;8.55;;
36815;SDS011;71982;52.294;6.760;2023-08-06T06:46:50;12.50;;;8.07;;
36815;SDS011;71982;52.294;6.760;2023-08-06T06:49:17;14.82;;;9.82;;
36815;SDS011;71982;52.294;6.760;2023-08-06T06:51:44;11.10;;;8.18;;
36815;SDS011;71982;52.294;6.760;2023-08-06T06:54:10;10.57;;;8.13;;
36815;SDS011;71982;52.294;6.760;2023-08-06T06:56:37;13.32;;;8.48;;
36815;SDS011;71982;52.294;6.760;2023-08-06T06:59:04;10.88;;;8.00;;
36815;SDS011;71982;52.294;6.760;2023-08-06T07:01:32;13.05;;;8.25;;
36815;SDS011;71982;52.294;6.760;2023-08-06T07:03:59;13.00;;;8.07;;
36815;SDS011;71982;52.294;6.760;2023-08-06T07:06:29;15.55;;;8.40;;
36815;SDS011;71982;52.294;6.760;2023-08-06T07:08:56;11.25;;;8.48;;
36815;SDS011;71982;52.294;6.760;2023-08-06T07:11:23;13.07;;;7.97;;
36815;SDS011;71982;52.294;6.760;2023-08-06T07:13:55;14.68;;;8.60;;
36815;SDS011;71982;52.294;6.760;2023-08-06T07:16:22;12.77;;;8.23;;
36815;SDS011;71982;52.294;6.760;2023-08-06T07:18:51;9.70;;;7.57;;
36815;SDS011;71982;52.294;6.760;2023-08-06T07:21:18;11.18;;;8.07;;
36815;SDS011;71982;52.294;6.760;2023-08-06T07:23:45;11.00;;;8.48;;
36815;SDS011;71982;52.294;6.760;2023-08-06T07:26:14;12.68;;;7.55;;
36815;SDS011;71982;52.294;6.760;2023-08-06T07:28:41;13.45;;;7.95;;
36815;SDS011;71982;52.294;6.760;2023-08-06T07:31:09;11.30;;;8.23;;
36815;SDS011;71982;52.294;6.760;2023-08-06T07:33:36;12.43;;;7.53;;
36815;SDS011;71982;52.294;6.760;2023-08-06T07:36:08;18.73;;;9.10;;
36815;SDS011;71982;52.294;6.760;2023-08-06T07:38:36;12.23;;;7.28;;
36815;SDS011;71982;52.294;6.760;2023-08-06T07:41:03;10.73;;;7.65;;
36815;SDS011;71982;52.294;6.760;2023-08-06T07:43:31;12.35;;;8.25;;
36815;SDS011;71982;52.294;6.760;2023-08-06T07:45:58;9.20;;;7.55;;
36815;SDS011;71982;52.294;6.760;2023-08-06T07:48:25;12.80;;;8.40;;
36815;SDS011;71982;52.294;6.760;2023-08-06T07:50:52;14.02;;;8.23;;
36815;SDS011;71982;52.294;6.760;2023-08-06T07:53:21;11.73;;;7.78;;
36815;SDS011;71982;52.294;6.760;2023-08-06T07:55:52;11.18;;;8.90;;
36815;SDS011;71982;52.294;6.760;2023-08-06T07:58:20;11.88;;;8.77;;
36815;SDS011;71982;52.294;6.760;2023-08-06T08:00:47;12.10;;;8.88;;
36815;SDS011;71982;52.294;6.760;2023-08-06T08:03:14;11.57;;;8.63;;
36815;SDS011;71982;52.294;6.760;2023-08-06T08:05:41;10.82;;;8.82;;
36815;SDS011;71982;52.294;6.760;2023-08-06T08:08:09;11.45;;;8.13;;
36815;SDS011;71982;52.294;6.760;2023-08-06T08:10:37;10.10;;;8.27;;
36815;SDS011;71982;52.294;6.760;2023-08-06T08:13:04;11.18;;;8.88;;
36815;SDS011;71982;52.294;6.760;2023-08-06T08:15:31;10.63;;;8.55;;
36815;SDS011;71982;52.294;6.760;2023-08-06T08:17:58;11.18;;;8.70;;
36815;SDS011;71982;52.294;6.760;2023-08-06T08:20:26;12.35;;;9.38;;
36815;SDS011;71982;52.294;6.760;2023-08-06T08:22:56;13.30;;;9.50;;
36815;SDS011;71982;52.294;6.760;2023-08-06T08:25:24;14.27;;;9.43;;
36815;SDS011;71982;52.294;6.760;2023-08-06T08:27:53;12.85;;;8.63;;
36815;SDS011;71982;52.294;6.760;2023-08-06T08:30:20;10.55;;;8.52;;
36815;SDS011;71982;52.294;6.760;2023-08-06T08:32:47;10.57;;;7.70;;
36815;SDS011;71982;52.294;6.760;2023-08-06T08:35:14;11.50;;;7.70;;
36815;SDS011;71982;52.294;6.760;2023-08-06T08:37:41;12.75;;;7.60;;
36815;SDS011;71982;52.294;6.760;2023-08-06T08:40:08;12.63;;;9.20;;
36815;SDS011;71982;52.294;6.760;2023-08-06T08:42:36;9.88;;;7.65;;
36815;SDS011;71982;52.294;6.760;2023-08-06T08:45:05;12.55;;;7.72;;
36815;SDS011;71982;52.294;6.760;2023-08-06T08:47:37;9.70;;;6.95;;
36815;SDS011;71982;52.294;6.760;2023-08-06T08:50:06;10.85;;;7.35;;
36815;SDS011;71982;52.294;6.760;2023-08-06T08:52:34;8.77;;;7.18;;
36815;SDS011;71982;52.294;6.760;2023-08-06T08:55:02;10.57;;;6.97;;
36815;SDS011;71982;52.294;6.760;2023-08-06T08:57:29;14.48;;;7.63;;
36815;SDS011;71982;52.294;6.760;2023-08-06T08:59:56;9.60;;;7.32;;
36815;SDS011;71982;52.294;6.760;2023-08-06T09:02:24;11.38;;;6.97;;
36815;SDS011;71982;52.294;6.760;2023-08-06T09:04:54;9.43;;;6.97;;
36815;SDS011;71982;52.294;6.760;2023-08-06T09:07:24;12.05;;;6.53;;
36815;SDS011;71982;52.294;6.760;2023-08-06T09:09:52;7.07;;;5.47;;
36815;SDS011;71982;52.294;6.760;2023-08-06T09:12:20;10.07;;;6.18;;
36815;SDS011;71982;52.294;6.760;2023-08-06T09:14:48;10.00;;;6.05;;
36815;SDS011;71982;52.294;6.760;2023-08-06T09:17:15;10.43;;;6.43;;
36815;SDS011;71982;52.294;6.760;2023-08-06T09:19:46;9.02;;;5.90;;
36815;SDS011;71982;52.294;6.760;2023-08-06T09:22:14;7.60;;;5.22;;
36815;SDS011;71982;52.294;6.760;2023-08-06T09:24:41;8.85;;;4.72;;
36815;SDS011;71982;52.294;6.760;2023-08-06T09:27:12;5.53;;;4.50;;
36815;SDS011;71982;52.294;6.760;2023-08-06T09:29:43;6.73;;;5.03;;
36815;SDS011;71982;52.294;6.760;2023-08-06T13:13:52;6.10;;;3.30;;
36815;SDS011;71982;52.294;6.760;2023-08-06T13:16:19;4.00;;;2.72;;
36815;SDS011;71982;52.294;6.760;2023-08-06T13:18:46;7.10;;;3.33;;
36815;SDS011;71982;52.294;6.760;2023-08-06T13:21:13;3.53;;;2.88;;
36815;SDS011;71982;52.294;6.760;2023-08-06T13:23:40;4.72;;;2.83;;
36815;SDS011;71982;52.294;6.760;2023-08-06T13:26:06;4.82;;;2.50;;
36815;SDS011;71982;52.294;6.760;2023-08-06T13:28:33;4.45;;;2.70;;
36815;SDS011;71982;52.294;6.760;2023-08-06T13:31:01;4.15;;;3.40;;
36815;SDS011;71982;52.294;6.760;2023-08-06T13:33:28;4.05;;;2.88;;
36815;SDS011;71982;52.294;6.760;2023-08-06T13:35:55;5.35;;;3.00;;
36815;SDS011;71982;52.294;6.760;2023-08-06T13:38:21;3.58;;;2.45;;
36815;SDS011;71982;52.294;6.760;2023-08-06T13:40:48;4.05;;;2.45;;
36815;SDS011;71982;52.294;6.760;2023-08-06T13:43:15;3.13;;;2.08;;
36815;SDS011;71982;52.294;6.760;2023-08-06T13:45:44;7.95;;;2.80;;
36815;SDS011;71982;52.294;6.760;2023-08-06T13:48:12;6.13;;;3.03;;
36815;SDS011;71982;52.294;6.760;2023-08-06T13:50:38;5.35;;;2.92;;
36815;SDS011;71982;52.294;6.760;2023-08-06T13:53:05;4.35;;;3.20;;
36815;SDS011;71982;52.294;6.760;2023-08-06T13:55:32;4.30;;;3.03;;
36815;SDS011;71982;52.294;6.760;2023-08-06T13:57:59;4.88;;;3.80;;
36815;SDS011;71982;52.294;6.760;2023-08-06T14:00:25;8.70;;;3.50;;
36815;SDS011;71982;52.294;6.760;2023-08-06T14:02:52;9.93;;;4.13;;
36815;SDS011;71982;52.294;6.760;2023-08-06T14:05:20;7.38;;;4.20;;
36815;SDS011;71982;52.294;6.760;2023-08-06T14:07:47;7.45;;;4.70;;
36815;SDS011;71982;52.294;6.760;2023-08-06T14:10:14;8.02;;;3.95;;
36815;SDS011;71982;52.294;6.760;2023-08-06T14:12:41;9.30;;;5.00;;
36815;SDS011;71982;52.294;6.760;2023-08-06T14:15:08;10.43;;;5.13;;
36815;SDS011;71982;52.294;6.760;2023-08-06T14:17:35;10.75;;;5.47;;
36815;SDS011;71982;52.294;6.760;2023-08-06T14:20:03;10.68;;;5.18;;
36815;SDS011;71982;52.294;6.760;2023-08-06T14:22:33;11.20;;;6.63;;
36815;SDS011;71982;52.294;6.760;2023-08-06T14:25:00;12.88;;;5.85;;
36815;SDS011;71982;52.294;6.760;2023-08-06T14:27:27;54.00;;;9.48;;
36815;SDS011;71982;52.294;6.760;2023-08-06T14:29:54;17.55;;;8.52;;
36815;SDS011;71982;52.294;6.760;2023-08-06T14:32:21;10.48;;;7.03;;
36815;SDS011;71982;52.294;6.760;2023-08-06T14:34:48;25.00;;;7.38;;
36815;SDS011;71982;52.294;6.760;2023-08-06T14:37:15;11.00;;;5.55;;
36815;SDS011;71982;52.294;6.760;2023-08-06T14:39:43;4.60;;;3.33;;
36815;SDS011;71982;52.294;6.760;2023-08-06T14:42:10;13.77;;;5.15;;
36815;SDS011;71982;52.294;6.760;2023-08-06T14:44:36;22.20;;;4.35;;
36815;SDS011;71982;52.294;6.760;2023-08-06T14:47:03;9.25;;;4.90;;
36815;SDS011;71982;52.294;6.760;2023-08-06T14:49:30;7.43;;;4.15;;
36815;SDS011;71982;52.294;6.760;2023-08-06T14:51:57;9.68;;;4.70;;
36815;SDS011;71982;52.294;6.760;2023-08-06T14:54:26;8.40;;;5.30;;
36815;SDS011;71982;52.294;6.760;2023-08-06T14:56:54;12.02;;;4.80;;
36815;SDS011;71982;52.294;6.760;2023-08-06T14:59:21;7.10;;;4.15;;
36815;SDS011;71982;52.294;6.760;2023-08-06T15:01:48;7.22;;;4.93;;
36815;SDS011;71982;52.294;6.760;2023-08-06T15:04:16;6.97;;;4.75;;
36815;SDS011;71982;52.294;6.760;2023-08-06T15:06:43;5.82;;;5.13;;
36815;SDS011;71982;52.294;6.760;2023-08-06T15:09:10;6.53;;;5.40;;
36815;SDS011;71982;52.294;6.760;2023-08-06T15:11:37;7.00;;;5.68;;
36815;SDS011;71982;52.294;6.760;2023-08-06T15:14:05;9.30;;;6.35;;
36815;SDS011;71982;52.294;6.760;2023-08-06T15:16:32;8.75;;;6.93;;
36815;SDS011;71982;52.294;6.760;2023-08-06T15:18:59;11.38;;;7.38;;
36815;SDS011;71982;52.294;6.760;2023-08-06T15:21:26;12.27;;;8.60;;
36815;SDS011;71982;52.294;6.760;2023-08-06T15:23:53;14.40;;;9.20;;
36815;SDS011;71982;52.294;6.760;2023-08-06T15:26:19;12.27;;;9.00;;
36815;SDS011;71982;52.294;6.760;2023-08-06T15:28:46;13.70;;;9.02;;
36815;SDS011;71982;52.294;6.760;2023-08-06T15:31:17;14.98;;;10.02;;
36815;SDS011;71982;52.294;6.760;2023-08-06T15:33:52;13.07;;;9.93;;
36815;SDS011;71982;52.294;6.760;2023-08-06T15:36:29;16.40;;;12.57;;
36815;SDS011;71982;52.294;6.760;2023-08-06T15:38:56;15.07;;;11.25;;
36815;SDS011;71982;52.294;6.760;2023-08-06T15:41:22;18.02;;;11.82;;
36815;SDS011;71982;52.294;6.760;2023-08-06T15:43:55;14.75;;;11.13;;
36815;SDS011;71982;52.294;6.760;2023-08-06T15:46:24;18.63;;;11.80;;
36815;SDS011;71982;52.294;6.760;2023-08-06T15:48:51;18.15;;;12.80;;
36815;SDS011;71982;52.294;6.760;2023-08-06T15:51:18;21.05;;;12.85;;
36815;SDS011;71982;52.294;6.760;2023-08-06T15:53:47;18.83;;;12.55;;
36815;SDS011;71982;52.294;6.760;2023-08-06T15:56:43;17.65;;;11.65;;
36815;SDS011;71982;52.294;6.760;2023-08-06T15:59:21;14.25;;;10.50;;
36815;SDS011;71982;52.294;6.760;2023-08-06T16:04:55;13.38;;;9.35;;
36815;SDS011;71982;52.294;6.760;2023-08-06T16:07:25;11.43;;;9.00;;
36815;SDS011;71982;52.294;6.760;2023-08-06T16:10:26;13.15;;;9.32;;
36815;SDS011;71982;52.294;6.760;2023-08-06T16:12:56;12.77;;;8.93;;
36815;SDS011;71982;52.294;6.760;2023-08-06T16:15:24;15.65;;;9.60;;
36815;SDS011;71982;52.294;6.760;2023-08-06T16:17:57;11.45;;;9.30;;
36815;SDS011;71982;52.294;6.760;2023-08-06T16:20:27;13.32;;;9.60;;
36815;SDS011;71982;52.294;6.760;2023-08-06T16:22:57;12.40;;;9.45;;
36815;SDS011;71982;52.294;6.760;2023-08-06T16:25:26;12.57;;;8.90;;
36815;SDS011;71982;52.294;6.760;2023-08-06T16:27:57;12.75;;;9.55;;
36815;SDS011;71982;52.294;6.760;2023-08-06T16:30:23;12.45;;;8.93;;
36815;SDS011;71982;52.294;6.760;2023-08-06T16:33:00;14.23;;;9.25;;
36815;SDS011;71982;52.294;6.760;2023-08-06T16:35:30;14.82;;;9.88;;
36815;SDS011;71982;52.294;6.760;2023-08-06T16:37:57;12.73;;;8.85;;
36815;SDS011;71982;52.294;6.760;2023-08-06T16:40:29;13.65;;;8.38;;
36815;SDS011;71982;52.294;6.760;2023-08-06T16:43:08;10.77;;;7.95;;
36815;SDS011;71982;52.294;6.760;2023-08-06T16:45:38;10.70;;;7.88;;
36815;SDS011;71982;52.294;6.760;2023-08-06T16:48:08;10.70;;;7.13;;
36815;SDS011;71982;52.294;6.760;2023-08-06T16:50:38;9.55;;;7.38;;
36815;SDS011;71982;52.294;6.760;2023-08-06T16:53:07;11.65;;;7.97;;
36815;SDS011;71982;52.294;6.760;2023-08-06T16:55:35;11.02;;;7.70;;
36815;SDS011;71982;52.294;6.760;2023-08-06T16:58:03;11.25;;;7.57;;
36815;SDS011;71982;52.294;6.760;2023-08-06T17:00:30;11.32;;;8.50;;
36815;SDS011;71982;52.294;6.760;2023-08-06T17:02:57;11.65;;;8.07;;
36815;SDS011;71982;52.294;6.760;2023-08-06T17:05:25;11.65;;;7.70;;
36815;SDS011;71982;52.294;6.760;2023-08-06T17:07:55;10.73;;;7.78;;
36815;SDS011;71982;52.294;6.760;2023-08-06T17:10:25;12.73;;;7.38;;
36815;SDS011;71982;52.294;6.760;2023-08-06T17:12:54;14.40;;;8.93;;
36815;SDS011;71982;52.294;6.760;2023-08-06T17:15:25;10.77;;;7.17;;
36815;SDS011;71982;52.294;6.760;2023-08-06T17:17:58;10.38;;;6.90;;
36815;SDS011;71982;52.294;6.760;2023-08-06T17:20:36;8.98;;;7.05;;
36815;SDS011;71982;52.294;6.760;2023-08-06T17:23:09;9.70;;;6.65;;
36815;SDS011;71982;52.294;6.760;2023-08-06T17:25:39;14.18;;;7.13;;
36815;SDS011;71982;52.294;6.760;2023-08-06T17:28:10;10.57;;;6.97;;
36815;SDS011;71982;52.294;6.760;2023-08-06T17:30:43;13.13;;;6.67;;
36815;SDS011;71982;52.294;6.760;2023-08-06T17:33:10;7.88;;;5.65;;
36815;SDS011;71982;52.294;6.760;2023-08-06T17:35:42;10.85;;;6.57;;
36815;SDS011;71982;52.294;6.760;2023-08-06T17:38:09;10.25;;;6.55;;
36815;SDS011;71982;52.294;6.760;2023-08-06T17:40:41;12.82;;;7.25;;
36815;SDS011;71982;52.294;6.760;2023-08-06T17:43:11;9.95;;;5.28;;
36815;SDS011;71982;52.294;6.760;2023-08-06T17:45:42;16.48;;;5.20;;
36815;SDS011;71982;52.294;6.760;2023-08-06T17:48:23;9.98;;;4.95;;
36815;SDS011;71982;52.294;6.760;2023-08-06T17:51:02;9.23;;;5.10;;
36815;SDS011;71982;52.294;6.760;2023-08-06T17:53:32;11.23;;;4.40;;
36815;SDS011;71982;52.294;6.760;2023-08-06T17:55:59;12.15;;;3.65;;
36815;SDS011;71982;52.294;6.760;2023-08-06T17:58:30;9.52;;;3.58;;
36815;SDS011;71982;52.294;6.760;2023-08-06T18:01:00;8.57;;;3.10;;
36815;SDS011;71982;52.294;6.760;2023-08-06T18:03:27;8.20;;;3.00;;
36815;SDS011;71982;52.294;6.760;2023-08-06T18:05:56;8.85;;;3.13;;
36815;SDS011;71982;52.294;6.760;2023-08-06T18:08:26;10.65;;;3.15;;
36815;SDS011;71982;52.294;6.760;2023-08-06T18:11:11;13.40;;;3.33;;
36815;SDS011;71982;52.294;6.760;2023-08-06T18:14:00;12.88;;;2.83;;
36815;SDS011;71982;52.294;6.760;2023-08-06T18:16:28;10.40;;;2.53;;
36815;SDS011;71982;52.294;6.760;2023-08-06T18:18:57;13.45;;;3.10;;
36815;SDS011;71982;52.294;6.760;2023-08-06T18:21:24;10.77;;;2.63;;
36815;SDS011;71982;52.294;6.760;2023-08-06T18:23:52;14.88;;;3.95;;